sensor_id;sensor_type;location;lat;lon;timestamp;temperature;humidity
18147;DHT22;9199;48.832;9.182;2023-04-03T00:01:32;4.50;99.90
18147;DHT22;9199;48.832;9.182;2023-04-03T00:03:59;4.50;99.90
18147;DHT22;9199;48.832;9.182;2023-04-03T00:06:26;4.50;99.90
18147;DHT22;9199;48.832;9.182;2023-04-03T00:08:53;4.50;99.90
18147;DHT22;9199;48.832;9.182;2023-04-03T00:11:19;4.60;99.90
18147;DHT22;9199;48.832;9.182;2023-04-03T00:13:47;4.60;99.90
18147;DHT22;9199;48.832;9.182;2023-04-03T00:16:13;4.50;99.90
18147;DHT22;9199;48.832;9.182;2023-04-03T00:18:41;4.50;99.90
18147;DHT22;9199;48.832;9.182;2023-04-03T00:21:10;4.40;99.90
18147;DHT22;9199;48.832;9.182;2023-04-03T00:23:38;4.40;99.90
18147;DHT22;9199;48.832;9.182;2023-04-03T00:26:05;4.40;99.90
18147;DHT22;9199;48.832;9.182;2023-04-03T00:28:32;4.50;99.90
18147;DHT22;9199;48.832;9.182;2023-04-03T00:30:59;4.40;99.90
18147;DHT22;9199;48.832;9.182;2023-04-03T00:33:25;4.40;99.90
18147;DHT22;9199;48.832;9.182;2023-04-03T00:35:53;4.50;99.90
18147;DHT22;9199;48.832;9.182;2023-04-03T00:38:20;4.40;99.90
18147;DHT22;9199;48.832;9.182;2023-04-03T00:40:48;4.40;99.90
18147;DHT22;9199;48.832;9.182;2023-04-03T00:43:16;4.50;99.90
18147;DHT22;9199;48.832;9.182;2023-04-03T00:45:44;4.40;99.90
18147;DHT22;9199;48.832;9.182;2023-04-03T00:48:14;4.50;99.90
18147;DHT22;9199;48.832;9.182;2023-04-03T00:50:42;4.40;99.90
18147;DHT22;9199;48.832;9.182;2023-04-03T00:53:14;4.50;99.90
18147;DHT22;9199;48.832;9.182;2023-04-03T00:55:43;4.50;99.90
18147;DHT22;9199;48.832;9.182;2023-04-03T00:58:10;4.40;99.90
18147;DHT22;9199;48.832;9.182;2023-04-03T01:00:42;4.40;99.90
18147;DHT22;9199;48.832;9.182;2023-04-03T01:03:11;4.50;99.90
18147;DHT22;9199;48.832;9.182;2023-04-03T01:05:38;4.50;99.90
18147;DHT22;9199;48.832;9.182;2023-04-03T01:08:06;4.50;99.90
18147;DHT22;9199;48.832;9.182;2023-04-03T01:10:34;4.50;99.90
18147;DHT22;9199;48.832;9.182;2023-04-03T01:13:01;4.50;99.90
18147;DHT22;9199;48.832;9.182;2023-04-03T01:15:28;4.50;99.90
18147;DHT22;9199;48.832;9.182;2023-04-03T01:17:56;4.40;99.90
18147;DHT22;9199;48.832;9.182;2023-04-03T01:23:32;4.40;99.90
18147;DHT22;9199;48.832;9.182;2023-04-03T01:26:02;4.30;99.90
18147;DHT22;9199;48.832;9.182;2023-04-03T01:28:31;4.30;99.90
18147;DHT22;9199;48.832;9.182;2023-04-03T01:31:02;4.30;99.90
18147;DHT22;9199;48.832;9.182;2023-04-03T01:33:34;4.30;99.90
18147;DHT22;9199;48.832;9.182;2023-04-03T01:36:01;4.20;99.90
18147;DHT22;9199;48.832;9.182;2023-04-03T01:38:28;4.20;99.90
18147;DHT22;9199;48.832;9.182;2023-04-03T01:40:55;4.20;99.90
18147;DHT22;9199;48.832;9.182;2023-04-03T01:43:22;4.20;99.90
18147;DHT22;9199;48.832;9.182;2023-04-03T01:45:49;4.30;99.90
18147;DHT22;9199;48.832;9.182;2023-04-03T01:48:18;4.30;99.90
18147;DHT22;9199;48.832;9.182;2023-04-03T01:50:46;4.30;99.90
18147;DHT22;9199;48.832;9.182;2023-04-03T01:53:13;4.30;99.90
18147;DHT22;9199;48.832;9.182;2023-04-03T01:55:40;4.30;99.90
18147;DHT22;9199;48.832;9.182;2023-04-03T01:58:07;4.30;99.90
18147;DHT22;9199;48.832;9.182;2023-04-03T02:00:34;4.30;99.90
18147;DHT22;9199;48.832;9.182;2023-04-03T02:03:01;4.20;99.90
18147;DHT22;9199;48.832;9.182;2023-04-03T02:05:28;4.20;99.90
18147;DHT22;9199;48.832;9.182;2023-04-03T02:07:56;4.20;99.90
18147;DHT22;9199;48.832;9.182;2023-04-03T02:10:23;4.20;99.90
18147;DHT22;9199;48.832;9.182;2023-04-03T02:12:50;4.20;99.90
18147;DHT22;9199;48.832;9.182;2023-04-03T02:15:16;4.20;99.90
18147;DHT22;9199;48.832;9.182;2023-04-03T02:17:43;4.20;99.90
18147;DHT22;9199;48.832;9.182;2023-04-03T02:20:10;4.20;99.90
18147;DHT22;9199;48.832;9.182;2023-04-03T02:22:38;4.20;99.90
18147;DHT22;9199;48.832;9.182;2023-04-03T02:25:07;4.10;99.90
18147;DHT22;9199;48.832;9.182;2023-04-03T02:27:33;4.20;99.90
18147;DHT22;9199;48.832;9.182;2023-04-03T02:30:00;4.20;99.90
18147;DHT22;9199;48.832;9.182;2023-04-03T02:32:27;4.20;99.90
18147;DHT22;9199;48.832;9.182;2023-04-03T02:34:54;4.10;99.90
18147;DHT22;9199;48.832;9.182;2023-04-03T02:37:20;4.10;99.90
18147;DHT22;9199;48.832;9.182;2023-04-03T02:39:47;4.10;99.90
18147;DHT22;9199;48.832;9.182;2023-04-03T02:42:15;4.10;99.90
18147;DHT22;9199;48.832;9.182;2023-04-03T02:44:42;4.10;99.90
18147;DHT22;9199;48.832;9.182;2023-04-03T02:47:09;4.10;99.90
18147;DHT22;9199;48.832;9.182;2023-04-03T02:49:36;4.10;99.90
18147;DHT22;9199;48.832;9.182;2023-04-03T02:52:03;4.10;99.90
18147;DHT22;9199;48.832;9.182;2023-04-03T02:54:30;4.10;99.90
18147;DHT22;9199;48.832;9.182;2023-04-03T02:56:57;4.10;99.90
18147;DHT22;9199;48.832;9.182;2023-04-03T02:59:25;4.20;99.90
18147;DHT22;9199;48.832;9.182;2023-04-03T03:01:52;4.20;99.90
18147;DHT22;9199;48.832;9.182;2023-04-03T03:04:19;4.10;99.90
18147;DHT22;9199;48.832;9.182;2023-04-03T03:06:46;4.10;99.90
18147;DHT22;9199;48.832;9.182;2023-04-03T03:09:13;4.10;99.90
18147;DHT22;9199;48.832;9.182;2023-04-03T03:11:40;4.10;99.90
18147;DHT22;9199;48.832;9.182;2023-04-03T03:14:06;4.10;99.90
18147;DHT22;9199;48.832;9.182;2023-04-03T03:16:35;4.10;99.90
18147;DHT22;9199;48.832;9.182;2023-04-03T03:19:02;4.10;99.90
18147;DHT22;9199;48.832;9.182;2023-04-03T03:21:29;4.10;99.90
18147;DHT22;9199;48.832;9.182;2023-04-03T03:23:55;4.10;99.90
18147;DHT22;9199;48.832;9.182;2023-04-03T03:26:22;4.10;99.90
18147;DHT22;9199;48.832;9.182;2023-04-03T03:28:49;4.10;99.90
18147;DHT22;9199;48.832;9.182;2023-04-03T03:31:16;4.10;99.90
18147;DHT22;9199;48.832;9.182;2023-04-03T03:33:44;4.10;99.90
18147;DHT22;9199;48.832;9.182;2023-04-03T03:36:11;4.10;99.90
18147;DHT22;9199;48.832;9.182;2023-04-03T03:38:37;4.10;99.90
18147;DHT22;9199;48.832;9.182;2023-04-03T03:41:04;4.10;99.90
18147;DHT22;9199;48.832;9.182;2023-04-03T03:43:31;4.10;99.90
18147;DHT22;9199;48.832;9.182;2023-04-03T03:45:58;4.10;99.90
18147;DHT22;9199;48.832;9.182;2023-04-03T03:48:24;4.10;99.90
18147;DHT22;9199;48.832;9.182;2023-04-03T03:50:52;4.10;99.90
18147;DHT22;9199;48.832;9.182;2023-04-03T03:53:19;4.10;99.90
18147;DHT22;9199;48.832;9.182;2023-04-03T03:55:46;4.20;99.90
18147;DHT22;9199;48.832;9.182;2023-04-03T03:58:12;4.30;99.90
18147;DHT22;9199;48.832;9.182;2023-04-03T04:00:39;4.30;99.90
18147;DHT22;9199;48.832;9.182;2023-04-03T04:03:06;4.40;99.90
18147;DHT22;9199;48.832;9.182;2023-04-03T04:05:33;4.40;99.90
18147;DHT22;9199;48.832;9.182;2023-04-03T04:08:01;4.40;99.90
18147;DHT22;9199;48.832;9.182;2023-04-03T04:10:28;4.40;99.90
18147;DHT22;9199;48.832;9.182;2023-04-03T04:12:55;4.40;99.90
18147;DHT22;9199;48.832;9.182;2023-04-03T04:15:21;4.40;99.90
18147;DHT22;9199;48.832;9.182;2023-04-03T04:17:48;4.40;99.90
18147;DHT22;9199;48.832;9.182;2023-04-03T04:20:15;4.40;99.90
18147;DHT22;9199;48.832;9.182;2023-04-03T04:22:42;4.40;99.90
18147;DHT22;9199;48.832;9.182;2023-04-03T04:25:10;4.40;99.90
18147;DHT22;9199;48.832;9.182;2023-04-03T04:27:37;4.40;99.90
18147;DHT22;9199;48.832;9.182;2023-04-03T04:30:05;4.40;99.90
18147;DHT22;9199;48.832;9.182;2023-04-03T04:32:32;4.40;99.90
18147;DHT22;9199;48.832;9.182;2023-04-03T04:35:03;4.40;99.90
18147;DHT22;9199;48.832;9.182;2023-04-03T04:37:30;4.30;99.90
18147;DHT22;9199;48.832;9.182;2023-04-03T04:39:57;4.40;99.90
18147;DHT22;9199;48.832;9.182;2023-04-03T04:42:25;4.30;99.90
18147;DHT22;9199;48.832;9.182;2023-04-03T04:44:52;4.30;99.90
18147;DHT22;9199;48.832;9.182;2023-04-03T04:47:19;4.30;99.90
18147;DHT22;9199;48.832;9.182;2023-04-03T04:49:45;4.30;99.90
18147;DHT22;9199;48.832;9.182;2023-04-03T04:52:13;4.40;99.90
18147;DHT22;9199;48.832;9.182;2023-04-03T04:54:40;4.40;99.90
18147;DHT22;9199;48.832;9.182;2023-04-03T04:57:06;4.40;99.90
18147;DHT22;9199;48.832;9.182;2023-04-03T04:59:35;4.40;99.90
18147;DHT22;9199;48.832;9.182;2023-04-03T05:02:01;4.40;99.90
18147;DHT22;9199;48.832;9.182;2023-04-03T05:04:28;4.80;99.90
18147;DHT22;9199;48.832;9.182;2023-04-03T05:06:55;5.60;99.90
18147;DHT22;9199;48.832;9.182;2023-04-03T05:09:21;6.30;99.90
18147;DHT22;9199;48.832;9.182;2023-04-03T05:11:48;6.30;99.90
18147;DHT22;9199;48.832;9.182;2023-04-03T05:14:15;5.90;99.90
18147;DHT22;9199;48.832;9.182;2023-04-03T05:16:43;5.50;99.90
18147;DHT22;9199;48.832;9.182;2023-04-03T05:19:10;5.10;99.90
18147;DHT22;9199;48.832;9.182;2023-04-03T05:21:37;4.80;99.90
18147;DHT22;9199;48.832;9.182;2023-04-03T05:24:04;4.70;99.90
18147;DHT22;9199;48.832;9.182;2023-04-03T05:26:34;4.60;99.90
18147;DHT22;9199;48.832;9.182;2023-04-03T05:29:01;4.50;99.90
18147;DHT22;9199;48.832;9.182;2023-04-03T05:31:28;4.50;99.90
18147;DHT22;9199;48.832;9.182;2023-04-03T05:33:58;4.40;99.90
18147;DHT22;9199;48.832;9.182;2023-04-03T05:36:24;4.40;99.90
18147;DHT22;9199;48.832;9.182;2023-04-03T05:38:52;4.40;99.90
18147;DHT22;9199;48.832;9.182;2023-04-03T05:41:19;4.40;99.90
18147;DHT22;9199;48.832;9.182;2023-04-03T05:43:46;4.40;99.90
18147;DHT22;9199;48.832;9.182;2023-04-03T05:46:15;4.40;99.90
18147;DHT22;9199;48.832;9.182;2023-04-03T05:48:42;4.40;99.90
18147;DHT22;9199;48.832;9.182;2023-04-03T05:51:14;4.40;99.90
18147;DHT22;9199;48.832;9.182;2023-04-03T05:53:43;4.40;99.90
18147;DHT22;9199;48.832;9.182;2023-04-03T05:56:10;4.40;99.90
18147;DHT22;9199;48.832;9.182;2023-04-03T05:58:36;4.40;99.90
18147;DHT22;9199;48.832;9.182;2023-04-03T06:01:03;4.50;99.90
18147;DHT22;9199;48.832;9.182;2023-04-03T06:03:30;4.50;99.90
18147;DHT22;9199;48.832;9.182;2023-04-03T06:05:57;4.50;99.90
18147;DHT22;9199;48.832;9.182;2023-04-03T06:08:25;4.50;99.90
18147;DHT22;9199;48.832;9.182;2023-04-03T06:10:52;4.60;99.90
18147;DHT22;9199;48.832;9.182;2023-04-03T06:13:19;4.60;99.90
18147;DHT22;9199;48.832;9.182;2023-04-03T06:15:46;4.70;99.90
18147;DHT22;9199;48.832;9.182;2023-04-03T06:18:12;4.80;99.90
18147;DHT22;9199;48.832;9.182;2023-04-03T06:20:39;5.00;99.90
18147;DHT22;9199;48.832;9.182;2023-04-03T06:23:06;5.10;99.90
18147;DHT22;9199;48.832;9.182;2023-04-03T06:25:34;5.20;99.90
18147;DHT22;9199;48.832;9.182;2023-04-03T06:28:01;5.20;99.90
18147;DHT22;9199;48.832;9.182;2023-04-03T06:30:28;5.10;99.90
18147;DHT22;9199;48.832;9.182;2023-04-03T06:32:54;5.10;99.90
18147;DHT22;9199;48.832;9.182;2023-04-03T06:35:21;5.00;99.90
18147;DHT22;9199;48.832;9.182;2023-04-03T06:37:49;5.00;99.90
18147;DHT22;9199;48.832;9.182;2023-04-03T06:40:19;5.10;99.90
18147;DHT22;9199;48.832;9.182;2023-04-03T06:42:48;5.10;99.90
18147;DHT22;9199;48.832;9.182;2023-04-03T06:45:16;5.10;99.90
18147;DHT22;9199;48.832;9.182;2023-04-03T06:47:43;5.10;99.90
18147;DHT22;9199;48.832;9.182;2023-04-03T06:50:11;5.10;99.90
18147;DHT22;9199;48.832;9.182;2023-04-03T06:52:39;5.00;99.90
18147;DHT22;9199;48.832;9.182;2023-04-03T06:55:07;5.00;99.90
18147;DHT22;9199;48.832;9.182;2023-04-03T06:57:34;4.90;99.90
18147;DHT22;9199;48.832;9.182;2023-04-03T07:00:04;4.90;99.90
18147;DHT22;9199;48.832;9.182;2023-04-03T07:02:31;5.00;99.90
18147;DHT22;9199;48.832;9.182;2023-04-03T07:04:57;5.00;99.90
18147;DHT22;9199;48.832;9.182;2023-04-03T07:07:24;5.10;99.90
18147;DHT22;9199;48.832;9.182;2023-04-03T07:09:51;5.10;99.90
18147;DHT22;9199;48.832;9.182;2023-04-03T07:12:18;5.20;99.90
18147;DHT22;9199;48.832;9.182;2023-04-03T07:14:44;5.30;99.90
18147;DHT22;9199;48.832;9.182;2023-04-03T07:17:12;5.40;99.90
18147;DHT22;9199;48.832;9.182;2023-04-03T07:19:39;5.60;99.90
18147;DHT22;9199;48.832;9.182;2023-04-03T07:22:06;5.70;99.90
18147;DHT22;9199;48.832;9.182;2023-04-03T07:24:33;5.90;99.90
18147;DHT22;9199;48.832;9.182;2023-04-03T07:27:00;6.00;99.90
18147;DHT22;9199;48.832;9.182;2023-04-03T07:29:27;6.00;99.90
18147;DHT22;9199;48.832;9.182;2023-04-03T07:31:55;6.00;99.90
18147;DHT22;9199;48.832;9.182;2023-04-03T07:34:23;6.10;99.90
18147;DHT22;9199;48.832;9.182;2023-04-03T07:36:50;6.20;99.90
18147;DHT22;9199;48.832;9.182;2023-04-03T07:39:16;6.30;99.90
18147;DHT22;9199;48.832;9.182;2023-04-03T07:41:43;6.30;99.90
18147;DHT22;9199;48.832;9.182;2023-04-03T07:44:10;6.30;99.90
18147;DHT22;9199;48.832;9.182;2023-04-03T07:46:37;6.40;99.90
18147;DHT22;9199;48.832;9.182;2023-04-03T07:49:03;6.40;99.90
18147;DHT22;9199;48.832;9.182;2023-04-03T07:51:32;6.40;99.90
18147;DHT22;9199;48.832;9.182;2023-04-03T07:53:59;6.40;99.90
18147;DHT22;9199;48.832;9.182;2023-04-03T07:56:26;6.50;99.90
18147;DHT22;9199;48.832;9.182;2023-04-03T07:58:53;6.70;99.90
18147;DHT22;9199;48.832;9.182;2023-04-03T08:01:20;7.00;99.90
18147;DHT22;9199;48.832;9.182;2023-04-03T08:03:47;7.20;99.90
18147;DHT22;9199;48.832;9.182;2023-04-03T08:06:13;7.30;99.90
18147;DHT22;9199;48.832;9.182;2023-04-03T08:08:42;7.20;99.90
18147;DHT22;9199;48.832;9.182;2023-04-03T08:11:10;7.00;99.90
18147;DHT22;9199;48.832;9.182;2023-04-03T08:13:37;7.00;99.90
18147;DHT22;9199;48.832;9.182;2023-04-03T08:16:10;7.30;99.90
18147;DHT22;9199;48.832;9.182;2023-04-03T08:18:37;7.80;99.90
18147;DHT22;9199;48.832;9.182;2023-04-03T08:21:07;8.10;98.90
18147;DHT22;9199;48.832;9.182;2023-04-03T08:23:34;8.50;98.90
18147;DHT22;9199;48.832;9.182;2023-04-03T08:26:07;8.90;97.60
18147;DHT22;9199;48.832;9.182;2023-04-03T08:28:34;8.80;97.00
18147;DHT22;9199;48.832;9.182;2023-04-03T08:31:05;8.60;97.30
18147;DHT22;9199;48.832;9.182;2023-04-03T08:33:32;8.50;97.50
18147;DHT22;9199;48.832;9.182;2023-04-03T08:36:01;8.60;97.90
18147;DHT22;9199;48.832;9.182;2023-04-03T08:38:28;8.60;97.70
18147;DHT22;9199;48.832;9.182;2023-04-03T08:41:11;8.20;97.70
18147;DHT22;9199;48.832;9.182;2023-04-03T08:46:52;8.30;98.50
18147;DHT22;9199;48.832;9.182;2023-04-03T08:49:26;8.70;97.20
18147;DHT22;9199;48.832;9.182;2023-04-03T08:51:55;8.30;97.40
18147;DHT22;9199;48.832;9.182;2023-04-03T08:54:28;8.00;98.10
18147;DHT22;9199;48.832;9.182;2023-04-03T08:56:58;7.80;98.70
18147;DHT22;9199;48.832;9.182;2023-04-03T08:59:28;7.70;97.80
18147;DHT22;9199;48.832;9.182;2023-04-03T09:01:58;7.80;97.50
18147;DHT22;9199;48.832;9.182;2023-04-03T09:04:29;7.90;97.80
18147;DHT22;9199;48.832;9.182;2023-04-03T09:07:03;8.10;97.40
18147;DHT22;9199;48.832;9.182;2023-04-03T09:09:36;8.30;97.70
18147;DHT22;9199;48.832;9.182;2023-04-03T09:12:15;8.50;97.70
18147;DHT22;9199;48.832;9.182;2023-04-03T09:14:47;8.70;95.60
18147;DHT22;9199;48.832;9.182;2023-04-03T09:17:24;8.40;95.80
18147;DHT22;9199;48.832;9.182;2023-04-03T09:19:58;8.00;96.30
18147;DHT22;9199;48.832;9.182;2023-04-03T09:22:32;7.80;96.40
18147;DHT22;9199;48.832;9.182;2023-04-03T09:25:03;7.60;96.20
18147;DHT22;9199;48.832;9.182;2023-04-03T09:27:34;7.70;96.50
18147;DHT22;9199;48.832;9.182;2023-04-03T09:30:01;7.80;96.20
18147;DHT22;9199;48.832;9.182;2023-04-03T09:32:29;7.80;96.10
18147;DHT22;9199;48.832;9.182;2023-04-03T09:34:59;8.10;96.30
18147;DHT22;9199;48.832;9.182;2023-04-03T09:37:39;8.30;96.00
18147;DHT22;9199;48.832;9.182;2023-04-03T09:40:27;8.50;95.50
18147;DHT22;9199;48.832;9.182;2023-04-03T09:42:57;8.60;94.40
18147;DHT22;9199;48.832;9.182;2023-04-03T09:45:27;8.50;94.80
18147;DHT22;9199;48.832;9.182;2023-04-03T09:48:12;8.50;95.70
18147;DHT22;9199;48.832;9.182;2023-04-03T09:50:53;8.50;96.30
18147;DHT22;9199;48.832;9.182;2023-04-03T09:53:30;8.80;95.80
18147;DHT22;9199;48.832;9.182;2023-04-03T09:55:58;9.00;94.50
18147;DHT22;9199;48.832;9.182;2023-04-03T09:58:28;8.70;93.80
18147;DHT22;9199;48.832;9.182;2023-04-03T10:00:57;8.50;94.80
18147;DHT22;9199;48.832;9.182;2023-04-03T10:03:28;8.40;94.40
18147;DHT22;9199;48.832;9.182;2023-04-03T10:05:56;8.20;94.90
18147;DHT22;9199;48.832;9.182;2023-04-03T10:08:26;8.00;94.80
18147;DHT22;9199;48.832;9.182;2023-04-03T10:11:09;8.00;94.70
18147;DHT22;9199;48.832;9.182;2023-04-03T10:13:49;8.20;95.10
18147;DHT22;9199;48.832;9.182;2023-04-03T10:16:18;8.20;95.30
18147;DHT22;9199;48.832;9.182;2023-04-03T10:18:51;8.10;95.30
18147;DHT22;9199;48.832;9.182;2023-04-03T10:21:29;8.20;95.50
18147;DHT22;9199;48.832;9.182;2023-04-03T10:24:03;8.20;95.40
18147;DHT22;9199;48.832;9.182;2023-04-03T10:26:39;8.00;95.40
18147;DHT22;9199;48.832;9.182;2023-04-03T10:29:16;7.80;95.50
18147;DHT22;9199;48.832;9.182;2023-04-03T10:31:52;7.70;94.90
18147;DHT22;9199;48.832;9.182;2023-04-03T10:34:25;7.70;95.30
18147;DHT22;9199;48.832;9.182;2023-04-03T10:37:01;7.70;95.50
18147;DHT22;9199;48.832;9.182;2023-04-03T10:39:39;7.70;95.60
18147;DHT22;9199;48.832;9.182;2023-04-03T10:42:14;7.50;95.30
18147;DHT22;9199;48.832;9.182;2023-04-03T10:44:59;7.40;95.70
18147;DHT22;9199;48.832;9.182;2023-04-03T10:47:34;7.30;94.90
18147;DHT22;9199;48.832;9.182;2023-04-03T10:50:12;7.40;94.60
18147;DHT22;9199;48.832;9.182;2023-04-03T10:52:48;7.40;94.60
18147;DHT22;9199;48.832;9.182;2023-04-03T10:55:28;7.40;94.60
18147;DHT22;9199;48.832;9.182;2023-04-03T10:57:58;7.30;94.30
18147;DHT22;9199;48.832;9.182;2023-04-03T11:00:33;7.40;93.90
18147;DHT22;9199;48.832;9.182;2023-04-03T11:03:06;7.50;94.50
18147;DHT22;9199;48.832;9.182;2023-04-03T11:05:39;7.60;93.30
18147;DHT22;9199;48.832;9.182;2023-04-03T11:08:12;7.70;92.60
18147;DHT22;9199;48.832;9.182;2023-04-03T11:10:42;7.90;91.80
18147;DHT22;9199;48.832;9.182;2023-04-03T11:13:13;8.00;91.00
18147;DHT22;9199;48.832;9.182;2023-04-03T11:15:43;8.00;91.10
18147;DHT22;9199;48.832;9.182;2023-04-03T11:18:13;7.80;89.80
18147;DHT22;9199;48.832;9.182;2023-04-03T11:20:44;7.60;90.00
18147;DHT22;9199;48.832;9.182;2023-04-03T11:23:20;7.50;90.30
18147;DHT22;9199;48.832;9.182;2023-04-03T11:25:51;7.40;91.20
18147;DHT22;9199;48.832;9.182;2023-04-03T11:28:18;7.30;92.10
18147;DHT22;9199;48.832;9.182;2023-04-03T11:30:50;7.30;91.50
18147;DHT22;9199;48.832;9.182;2023-04-03T11:33:28;7.30;92.40
18147;DHT22;9199;48.832;9.182;2023-04-03T11:36:00;7.50;92.40
18147;DHT22;9199;48.832;9.182;2023-04-03T11:38:30;7.60;91.70
18147;DHT22;9199;48.832;9.182;2023-04-03T11:41:00;7.80;91.60
18147;DHT22;9199;48.832;9.182;2023-04-03T11:43:28;7.90;91.60
18147;DHT22;9199;48.832;9.182;2023-04-03T11:45:59;8.00;91.60
18147;DHT22;9199;48.832;9.182;2023-04-03T11:48:50;7.90;91.80
18147;DHT22;9199;48.832;9.182;2023-04-03T11:51:40;7.90;91.60
18147;DHT22;9199;48.832;9.182;2023-04-03T11:57:50;8.30;92.20
18147;DHT22;9199;48.832;9.182;2023-04-03T12:00:50;8.40;90.90
18147;DHT22;9199;48.832;9.182;2023-04-03T12:04:04;8.50;90.00
18147;DHT22;9199;48.832;9.182;2023-04-03T12:06:59;8.30;90.30
18147;DHT22;9199;48.832;9.182;2023-04-03T12:09:33;8.10;88.40
18147;DHT22;9199;48.832;9.182;2023-04-03T12:14:43;8.10;90.80
18147;DHT22;9199;48.832;9.182;2023-04-03T12:17:20;8.10;90.10
18147;DHT22;9199;48.832;9.182;2023-04-03T12:19:50;8.20;90.40
18147;DHT22;9199;48.832;9.182;2023-04-03T12:22:17;8.30;90.70
18147;DHT22;9199;48.832;9.182;2023-04-03T12:24:47;8.40;89.20
18147;DHT22;9199;48.832;9.182;2023-04-03T12:27:38;8.50;88.60
18147;DHT22;9199;48.832;9.182;2023-04-03T12:30:15;8.30;88.80
18147;DHT22;9199;48.832;9.182;2023-04-03T12:32:51;8.50;90.00
18147;DHT22;9199;48.832;9.182;2023-04-03T12:35:28;8.80;87.00
18147;DHT22;9199;48.832;9.182;2023-04-03T12:38:21;8.80;86.70
18147;DHT22;9199;48.832;9.182;2023-04-03T12:40:57;8.80;87.50
18147;DHT22;9199;48.832;9.182;2023-04-03T12:43:36;8.60;87.50
18147;DHT22;9199;48.832;9.182;2023-04-03T12:46:12;8.50;87.20
18147;DHT22;9199;48.832;9.182;2023-04-03T12:48:48;8.30;86.90
18147;DHT22;9199;48.832;9.182;2023-04-03T12:51:19;8.30;85.80
18147;DHT22;9199;48.832;9.182;2023-04-03T12:53:49;8.50;87.20
18147;DHT22;9199;48.832;9.182;2023-04-03T12:56:23;8.60;86.30
18147;DHT22;9199;48.832;9.182;2023-04-03T12:58:51;8.60;86.60
18147;DHT22;9199;48.832;9.182;2023-04-03T13:01:20;8.60;87.10
18147;DHT22;9199;48.832;9.182;2023-04-03T13:03:49;8.50;86.60
18147;DHT22;9199;48.832;9.182;2023-04-03T13:06:21;8.70;86.50
18147;DHT22;9199;48.832;9.182;2023-04-03T13:08:50;8.70;84.80
18147;DHT22;9199;48.832;9.182;2023-04-03T13:11:18;8.70;85.00
18147;DHT22;9199;48.832;9.182;2023-04-03T13:13:55;9.00;84.00
18147;DHT22;9199;48.832;9.182;2023-04-03T13:16:22;9.30;84.00
18147;DHT22;9199;48.832;9.182;2023-04-03T13:18:50;9.30;84.20
18147;DHT22;9199;48.832;9.182;2023-04-03T13:21:20;9.30;85.60
18147;DHT22;9199;48.832;9.182;2023-04-03T13:23:50;9.30;83.40
18147;DHT22;9199;48.832;9.182;2023-04-03T13:26:18;9.10;84.80
18147;DHT22;9199;48.832;9.182;2023-04-03T13:28:47;9.00;85.10
18147;DHT22;9199;48.832;9.182;2023-04-03T13:31:20;9.20;84.70
18147;DHT22;9199;48.832;9.182;2023-04-03T13:33:55;9.30;83.10
18147;DHT22;9199;48.832;9.182;2023-04-03T13:36:27;9.20;81.80
18147;DHT22;9199;48.832;9.182;2023-04-03T13:39:04;9.20;79.40
18147;DHT22;9199;48.832;9.182;2023-04-03T13:41:32;9.40;78.60
18147;DHT22;9199;48.832;9.182;2023-04-03T13:44:16;9.80;78.10
18147;DHT22;9199;48.832;9.182;2023-04-03T13:46:43;9.80;78.90
18147;DHT22;9199;48.832;9.182;2023-04-03T13:49:22;9.80;78.50
18147;DHT22;9199;48.832;9.182;2023-04-03T13:51:50;10.10;76.50
18147;DHT22;9199;48.832;9.182;2023-04-03T13:54:21;10.30;74.30
18147;DHT22;9199;48.832;9.182;2023-04-03T13:56:53;10.20;74.70
18147;DHT22;9199;48.832;9.182;2023-04-03T13:59:25;10.00;75.10
18147;DHT22;9199;48.832;9.182;2023-04-03T14:01:55;9.70;77.30
18147;DHT22;9199;48.832;9.182;2023-04-03T14:04:44;9.40;78.20
18147;DHT22;9199;48.832;9.182;2023-04-03T14:07:14;9.10;78.60
18147;DHT22;9199;48.832;9.182;2023-04-03T14:09:41;9.00;78.50
18147;DHT22;9199;48.832;9.182;2023-04-03T14:12:15;9.00;79.30
18147;DHT22;9199;48.832;9.182;2023-04-03T14:14:42;9.10;79.80
18147;DHT22;9199;48.832;9.182;2023-04-03T14:17:14;9.20;80.20
18147;DHT22;9199;48.832;9.182;2023-04-03T14:19:41;9.10;77.90
18147;DHT22;9199;48.832;9.182;2023-04-03T14:22:15;9.00;75.70
18147;DHT22;9199;48.832;9.182;2023-04-03T14:24:42;8.90;75.80
18147;DHT22;9199;48.832;9.182;2023-04-03T14:27:15;9.00;76.50
18147;DHT22;9199;48.832;9.182;2023-04-03T14:29:42;9.10;75.10
18147;DHT22;9199;48.832;9.182;2023-04-03T14:32:11;9.10;73.60
18147;DHT22;9199;48.832;9.182;2023-04-03T14:34:38;9.20;73.40
18147;DHT22;9199;48.832;9.182;2023-04-03T14:37:05;9.30;74.20
18147;DHT22;9199;48.832;9.182;2023-04-03T14:39:37;9.40;72.00
18147;DHT22;9199;48.832;9.182;2023-04-03T14:42:04;10.70;68.90
18147;DHT22;9199;48.832;9.182;2023-04-03T14:44:31;12.70;65.40
18147;DHT22;9199;48.832;9.182;2023-04-03T14:46:57;12.80;64.20
18147;DHT22;9199;48.832;9.182;2023-04-03T14:49:26;12.00;64.20
18147;DHT22;9199;48.832;9.182;2023-04-03T14:51:55;11.00;66.70
18147;DHT22;9199;48.832;9.182;2023-04-03T14:54:22;10.10;68.50
18147;DHT22;9199;48.832;9.182;2023-04-03T14:56:54;9.60;70.40
18147;DHT22;9199;48.832;9.182;2023-04-03T14:59:21;9.40;71.10
18147;DHT22;9199;48.832;9.182;2023-04-03T15:01:49;9.30;71.70
18147;DHT22;9199;48.832;9.182;2023-04-03T15:04:16;9.10;73.10
18147;DHT22;9199;48.832;9.182;2023-04-03T15:06:44;9.30;73.60
18147;DHT22;9199;48.832;9.182;2023-04-03T15:09:18;9.20;70.50
18147;DHT22;9199;48.832;9.182;2023-04-03T15:11:46;9.40;69.90
18147;DHT22;9199;48.832;9.182;2023-04-03T15:14:14;9.50;70.60
18147;DHT22;9199;48.832;9.182;2023-04-03T15:16:41;9.40;70.00
18147;DHT22;9199;48.832;9.182;2023-04-03T15:19:07;9.20;69.60
18147;DHT22;9199;48.832;9.182;2023-04-03T15:21:35;9.40;71.00
18147;DHT22;9199;48.832;9.182;2023-04-03T15:24:02;9.80;70.60
18147;DHT22;9199;48.832;9.182;2023-04-03T15:26:29;9.90;68.60
18147;DHT22;9199;48.832;9.182;2023-04-03T15:28:56;10.00;66.60
18147;DHT22;9199;48.832;9.182;2023-04-03T15:31:24;9.80;67.70
18147;DHT22;9199;48.832;9.182;2023-04-03T15:33:51;9.60;68.00
18147;DHT22;9199;48.832;9.182;2023-04-03T15:36:17;9.30;68.00
18147;DHT22;9199;48.832;9.182;2023-04-03T15:38:44;9.00;68.60
18147;DHT22;9199;48.832;9.182;2023-04-03T15:41:11;8.90;69.40
18147;DHT22;9199;48.832;9.182;2023-04-03T15:43:38;9.20;69.80
18147;DHT22;9199;48.832;9.182;2023-04-03T15:46:04;9.90;68.90
18147;DHT22;9199;48.832;9.182;2023-04-03T15:48:33;11.00;65.50
18147;DHT22;9199;48.832;9.182;2023-04-03T15:50:59;12.40;59.90
18147;DHT22;9199;48.832;9.182;2023-04-03T15:53:26;12.90;56.70
18147;DHT22;9199;48.832;9.182;2023-04-03T15:55:53;14.00;54.60
18147;DHT22;9199;48.832;9.182;2023-04-03T15:58:20;15.20;51.60
18147;DHT22;9199;48.832;9.182;2023-04-03T16:00:46;16.20;49.80
18147;DHT22;9199;48.832;9.182;2023-04-03T16:03:17;17.00;46.30
18147;DHT22;9199;48.832;9.182;2023-04-03T16:05:46;17.90;44.90
18147;DHT22;9199;48.832;9.182;2023-04-03T16:08:13;18.40;43.20
18147;DHT22;9199;48.832;9.182;2023-04-03T16:10:41;17.90;43.00
18147;DHT22;9199;48.832;9.182;2023-04-03T16:13:08;17.70;43.50
18147;DHT22;9199;48.832;9.182;2023-04-03T16:15:35;17.40;43.20
18147;DHT22;9199;48.832;9.182;2023-04-03T16:18:03;15.50;45.20
18147;DHT22;9199;48.832;9.182;2023-04-03T16:20:30;13.40;48.30
18147;DHT22;9199;48.832;9.182;2023-04-03T16:22:59;11.90;51.50
18147;DHT22;9199;48.832;9.182;2023-04-03T16:25:26;10.80;55.00
18147;DHT22;9199;48.832;9.182;2023-04-03T16:27:53;10.00;55.60